sensor_id;sensor_type;location;lat;lon;timestamp;temperature;humidity
72814;DHT22;60945;48.516;-2.768;2024-01-30T00:01:23;12.10;76.00
72814;DHT22;60945;48.516;-2.768;2024-01-30T00:03:49;11.90;76.40
72814;DHT22;60945;48.516;-2.768;2024-01-30T00:06:18;12.00;76.70
72814;DHT22;60945;48.516;-2.768;2024-01-30T00:08:44;12.00;76.70
72814;DHT22;60945;48.516;-2.768;2024-01-30T00:11:12;11.90;77.20
72814;DHT22;60945;48.516;-2.768;2024-01-30T00:13:39;12.10;76.70
72814;DHT22;60945;48.516;-2.768;2024-01-30T00:16:05;12.10;76.60
72814;DHT22;60945;48.516;-2.768;2024-01-30T00:18:31;12.00;75.70
72814;DHT22;60945;48.516;-2.768;2024-01-30T00:20:57;12.00;75.00
72814;DHT22;60945;48.516;-2.768;2024-01-30T00:23:22;12.10;75.20
72814;DHT22;60945;48.516;-2.768;2024-01-30T00:25:48;12.10;74.50
72814;DHT22;60945;48.516;-2.768;2024-01-30T00:28:13;12.10;74.30
72814;DHT22;60945;48.516;-2.768;2024-01-30T00:30:39;11.90;74.60
72814;DHT22;60945;48.516;-2.768;2024-01-30T00:33:05;11.90;73.40
72814;DHT22;60945;48.516;-2.768;2024-01-30T00:35:30;12.00;72.70
72814;DHT22;60945;48.516;-2.768;2024-01-30T00:37:56;12.10;72.20
72814;DHT22;60945;48.516;-2.768;2024-01-30T00:40:22;12.00;72.50
72814;DHT22;60945;48.516;-2.768;2024-01-30T00:42:48;11.90;72.20
72814;DHT22;60945;48.516;-2.768;2024-01-30T00:45:14;11.60;72.50
72814;DHT22;60945;48.516;-2.768;2024-01-30T00:47:40;11.60;72.50
72814;DHT22;60945;48.516;-2.768;2024-01-30T00:50:06;11.70;72.30
72814;DHT22;60945;48.516;-2.768;2024-01-30T00:52:32;11.60;72.40
72814;DHT22;60945;48.516;-2.768;2024-01-30T00:54:59;11.50;72.10
72814;DHT22;60945;48.516;-2.768;2024-01-30T00:57:24;11.40;72.50
72814;DHT22;60945;48.516;-2.768;2024-01-30T00:59:50;11.50;71.70
72814;DHT22;60945;48.516;-2.768;2024-01-30T01:02:16;11.30;72.20
72814;DHT22;60945;48.516;-2.768;2024-01-30T01:04:43;11.10;71.90
72814;DHT22;60945;48.516;-2.768;2024-01-30T01:07:10;11.20;71.70
72814;DHT22;60945;48.516;-2.768;2024-01-30T01:09:35;11.50;70.90
72814;DHT22;60945;48.516;-2.768;2024-01-30T01:12:01;11.50;70.20
72814;DHT22;60945;48.516;-2.768;2024-01-30T01:14:27;11.50;70.70
72814;DHT22;60945;48.516;-2.768;2024-01-30T01:16:53;11.50;70.60
72814;DHT22;60945;48.516;-2.768;2024-01-30T01:19:18;11.50;70.80
72814;DHT22;60945;48.516;-2.768;2024-01-30T01:21:44;11.50;71.30
72814;DHT22;60945;48.516;-2.768;2024-01-30T01:24:10;11.50;70.70
72814;DHT22;60945;48.516;-2.768;2024-01-30T01:26:35;11.40;70.70
72814;DHT22;60945;48.516;-2.768;2024-01-30T01:29:01;11.50;70.80
72814;DHT22;60945;48.516;-2.768;2024-01-30T01:31:26;11.50;70.60
72814;DHT22;60945;48.516;-2.768;2024-01-30T01:33:55;11.60;70.30
72814;DHT22;60945;48.516;-2.768;2024-01-30T01:36:20;11.30;70.00
72814;DHT22;60945;48.516;-2.768;2024-01-30T01:38:46;11.30;70.00
72814;DHT22;60945;48.516;-2.768;2024-01-30T01:41:12;11.40;69.80
72814;DHT22;60945;48.516;-2.768;2024-01-30T01:43:37;11.40;69.60
72814;DHT22;60945;48.516;-2.768;2024-01-30T01:46:06;11.40;69.60
72814;DHT22;60945;48.516;-2.768;2024-01-30T01:48:32;11.30;70.00
72814;DHT22;60945;48.516;-2.768;2024-01-30T01:50:58;11.30;69.70
72814;DHT22;60945;48.516;-2.768;2024-01-30T01:53:24;11.20;70.30
72814;DHT22;60945;48.516;-2.768;2024-01-30T01:55:51;11.30;70.60
72814;DHT22;60945;48.516;-2.768;2024-01-30T01:58:19;11.30;70.10
72814;DHT22;60945;48.516;-2.768;2024-01-30T02:00:46;11.10;70.20
72814;DHT22;60945;48.516;-2.768;2024-01-30T02:03:14;11.00;70.80
72814;DHT22;60945;48.516;-2.768;2024-01-30T02:05:43;11.10;70.90
72814;DHT22;60945;48.516;-2.768;2024-01-30T02:08:08;11.20;70.00
72814;DHT22;60945;48.516;-2.768;2024-01-30T02:10:34;11.10;70.30
72814;DHT22;60945;48.516;-2.768;2024-01-30T02:13:00;11.10;70.00
72814;DHT22;60945;48.516;-2.768;2024-01-30T02:15:25;11.20;69.60
72814;DHT22;60945;48.516;-2.768;2024-01-30T02:17:51;11.10;69.80
72814;DHT22;60945;48.516;-2.768;2024-01-30T02:20:16;11.10;70.00
72814;DHT22;60945;48.516;-2.768;2024-01-30T02:22:42;11.10;70.00
72814;DHT22;60945;48.516;-2.768;2024-01-30T02:25:08;11.10;70.20
72814;DHT22;60945;48.516;-2.768;2024-01-30T02:27:34;11.10;70.10
72814;DHT22;60945;48.516;-2.768;2024-01-30T02:30:00;11.20;69.80
72814;DHT22;60945;48.516;-2.768;2024-01-30T02:32:25;11.30;69.60
72814;DHT22;60945;48.516;-2.768;2024-01-30T02:34:51;11.20;69.80
72814;DHT22;60945;48.516;-2.768;2024-01-30T02:37:17;11.10;70.40
72814;DHT22;60945;48.516;-2.768;2024-01-30T02:39:43;11.00;70.80
72814;DHT22;60945;48.516;-2.768;2024-01-30T02:42:08;11.00;71.30
72814;DHT22;60945;48.516;-2.768;2024-01-30T02:44:34;11.10;71.00
72814;DHT22;60945;48.516;-2.768;2024-01-30T02:46:59;11.00;70.80
72814;DHT22;60945;48.516;-2.768;2024-01-30T02:49:25;10.90;71.00
72814;DHT22;60945;48.516;-2.768;2024-01-30T02:51:52;10.90;71.20
72814;DHT22;60945;48.516;-2.768;2024-01-30T02:54:17;11.00;70.90
72814;DHT22;60945;48.516;-2.768;2024-01-30T02:56:43;10.90;70.80
72814;DHT22;60945;48.516;-2.768;2024-01-30T02:59:09;10.80;71.80
72814;DHT22;60945;48.516;-2.768;2024-01-30T03:01:42;10.80;71.90
72814;DHT22;60945;48.516;-2.768;2024-01-30T03:04:08;10.90;71.50
72814;DHT22;60945;48.516;-2.768;2024-01-30T03:06:34;11.00;71.70
72814;DHT22;60945;48.516;-2.768;2024-01-30T03:08:59;11.10;71.10
72814;DHT22;60945;48.516;-2.768;2024-01-30T03:11:28;10.90;71.00
72814;DHT22;60945;48.516;-2.768;2024-01-30T03:13:53;10.60;72.20
72814;DHT22;60945;48.516;-2.768;2024-01-30T03:16:19;10.50;72.80
72814;DHT22;60945;48.516;-2.768;2024-01-30T03:18:45;10.40;73.10
72814;DHT22;60945;48.516;-2.768;2024-01-30T03:21:11;10.40;73.40
72814;DHT22;60945;48.516;-2.768;2024-01-30T03:23:37;10.30;73.70
72814;DHT22;60945;48.516;-2.768;2024-01-30T03:26:03;10.10;74.40
72814;DHT22;60945;48.516;-2.768;2024-01-30T03:28:32;10.00;74.90
72814;DHT22;60945;48.516;-2.768;2024-01-30T03:30:57;9.90;75.40
72814;DHT22;60945;48.516;-2.768;2024-01-30T03:33:23;9.90;75.30
72814;DHT22;60945;48.516;-2.768;2024-01-30T03:35:48;9.90;75.70
72814;DHT22;60945;48.516;-2.768;2024-01-30T03:38:14;9.80;75.60
72814;DHT22;60945;48.516;-2.768;2024-01-30T03:40:39;9.80;75.80
72814;DHT22;60945;48.516;-2.768;2024-01-30T03:43:05;9.60;76.30
72814;DHT22;60945;48.516;-2.768;2024-01-30T03:45:31;9.60;76.40
72814;DHT22;60945;48.516;-2.768;2024-01-30T03:47:56;9.60;76.40
72814;DHT22;60945;48.516;-2.768;2024-01-30T03:50:22;9.50;76.70
72814;DHT22;60945;48.516;-2.768;2024-01-30T03:52:48;9.60;76.50
72814;DHT22;60945;48.516;-2.768;2024-01-30T03:55:13;9.50;77.00
72814;DHT22;60945;48.516;-2.768;2024-01-30T03:57:39;9.40;77.30
72814;DHT22;60945;48.516;-2.768;2024-01-30T04:00:05;9.30;77.50
72814;DHT22;60945;48.516;-2.768;2024-01-30T04:02:31;9.30;77.70
72814;DHT22;60945;48.516;-2.768;2024-01-30T04:04:57;9.40;77.80
72814;DHT22;60945;48.516;-2.768;2024-01-30T04:07:22;9.50;77.50
72814;DHT22;60945;48.516;-2.768;2024-01-30T04:09:48;9.70;76.70
72814;DHT22;60945;48.516;-2.768;2024-01-30T04:12:14;9.80;76.30
72814;DHT22;60945;48.516;-2.768;2024-01-30T04:14:39;9.90;76.00
72814;DHT22;60945;48.516;-2.768;2024-01-30T04:17:05;9.90;75.90
72814;DHT22;60945;48.516;-2.768;2024-01-30T04:19:30;10.00;76.10
72814;DHT22;60945;48.516;-2.768;2024-01-30T04:21:56;10.00;75.50
72814;DHT22;60945;48.516;-2.768;2024-01-30T04:24:22;9.90;75.80
72814;DHT22;60945;48.516;-2.768;2024-01-30T04:26:47;9.90;76.00
72814;DHT22;60945;48.516;-2.768;2024-01-30T04:29:13;10.00;75.60
72814;DHT22;60945;48.516;-2.768;2024-01-30T04:31:38;10.00;75.30
72814;DHT22;60945;48.516;-2.768;2024-01-30T04:34:04;9.90;75.40
72814;DHT22;60945;48.516;-2.768;2024-01-30T04:36:29;9.80;76.00
72814;DHT22;60945;48.516;-2.768;2024-01-30T04:38:55;9.70;76.10
72814;DHT22;60945;48.516;-2.768;2024-01-30T04:41:21;9.80;75.60
72814;DHT22;60945;48.516;-2.768;2024-01-30T04:43:46;9.90;75.60
72814;DHT22;60945;48.516;-2.768;2024-01-30T04:46:12;9.80;75.80
72814;DHT22;60945;48.516;-2.768;2024-01-30T04:48:38;9.50;77.10
72814;DHT22;60945;48.516;-2.768;2024-01-30T04:51:03;9.50;77.20
72814;DHT22;60945;48.516;-2.768;2024-01-30T04:53:30;9.50;77.30
72814;DHT22;60945;48.516;-2.768;2024-01-30T04:55:56;9.40;77.80
72814;DHT22;60945;48.516;-2.768;2024-01-30T04:58:22;9.40;78.00
72814;DHT22;60945;48.516;-2.768;2024-01-30T05:00:48;9.50;77.50
72814;DHT22;60945;48.516;-2.768;2024-01-30T05:03:17;9.60;77.10
72814;DHT22;60945;48.516;-2.768;2024-01-30T05:05:43;9.80;76.70
72814;DHT22;60945;48.516;-2.768;2024-01-30T05:08:08;9.90;76.40
72814;DHT22;60945;48.516;-2.768;2024-01-30T05:10:34;9.80;76.10
72814;DHT22;60945;48.516;-2.768;2024-01-30T05:13:00;10.00;75.90
72814;DHT22;60945;48.516;-2.768;2024-01-30T05:15:25;10.00;75.80
72814;DHT22;60945;48.516;-2.768;2024-01-30T05:17:51;10.00;75.80
72814;DHT22;60945;48.516;-2.768;2024-01-30T05:20:17;9.90;75.70
72814;DHT22;60945;48.516;-2.768;2024-01-30T05:22:42;9.70;75.90
72814;DHT22;60945;48.516;-2.768;2024-01-30T05:25:11;9.60;76.70
72814;DHT22;60945;48.516;-2.768;2024-01-30T05:27:37;9.50;77.20
72814;DHT22;60945;48.516;-2.768;2024-01-30T05:30:04;9.50;77.10
72814;DHT22;60945;48.516;-2.768;2024-01-30T05:32:29;9.60;76.80
72814;DHT22;60945;48.516;-2.768;2024-01-30T05:34:55;9.40;77.10
72814;DHT22;60945;48.516;-2.768;2024-01-30T05:37:21;9.30;77.50
72814;DHT22;60945;48.516;-2.768;2024-01-30T05:39:46;9.10;78.40
72814;DHT22;60945;48.516;-2.768;2024-01-30T05:42:12;9.10;78.80
72814;DHT22;60945;48.516;-2.768;2024-01-30T05:44:38;8.90;79.20
72814;DHT22;60945;48.516;-2.768;2024-01-30T05:47:04;8.90;79.30
72814;DHT22;60945;48.516;-2.768;2024-01-30T05:49:29;8.90;79.30
72814;DHT22;60945;48.516;-2.768;2024-01-30T05:51:55;8.80;79.50
72814;DHT22;60945;48.516;-2.768;2024-01-30T05:54:21;8.80;79.60
72814;DHT22;60945;48.516;-2.768;2024-01-30T05:56:46;8.60;80.40
72814;DHT22;60945;48.516;-2.768;2024-01-30T05:59:12;8.60;80.60
72814;DHT22;60945;48.516;-2.768;2024-01-30T06:01:37;8.70;80.30
72814;DHT22;60945;48.516;-2.768;2024-01-30T06:04:03;8.70;80.00
72814;DHT22;60945;48.516;-2.768;2024-01-30T06:06:29;8.70;79.70
72814;DHT22;60945;48.516;-2.768;2024-01-30T06:08:54;8.60;80.30
72814;DHT22;60945;48.516;-2.768;2024-01-30T06:11:21;8.40;81.20
72814;DHT22;60945;48.516;-2.768;2024-01-30T06:13:47;8.50;81.10
72814;DHT22;60945;48.516;-2.768;2024-01-30T06:16:12;8.60;80.80
72814;DHT22;60945;48.516;-2.768;2024-01-30T06:18:38;8.40;81.00
72814;DHT22;60945;48.516;-2.768;2024-01-30T06:21:05;8.40;81.40
72814;DHT22;60945;48.516;-2.768;2024-01-30T06:23:31;8.30;81.70
72814;DHT22;60945;48.516;-2.768;2024-01-30T06:25:56;8.30;82.10
72814;DHT22;60945;48.516;-2.768;2024-01-30T06:28:22;8.30;82.20
72814;DHT22;60945;48.516;-2.768;2024-01-30T06:30:48;8.40;81.90
72814;DHT22;60945;48.516;-2.768;2024-01-30T06:33:13;8.40;81.40
72814;DHT22;60945;48.516;-2.768;2024-01-30T06:35:40;8.40;81.80
72814;DHT22;60945;48.516;-2.768;2024-01-30T06:38:06;8.30;81.80
72814;DHT22;60945;48.516;-2.768;2024-01-30T06:40:31;8.20;82.30
72814;DHT22;60945;48.516;-2.768;2024-01-30T06:42:57;8.20;82.80
72814;DHT22;60945;48.516;-2.768;2024-01-30T06:45:23;8.30;82.80
72814;DHT22;60945;48.516;-2.768;2024-01-30T06:47:48;8.20;82.80
72814;DHT22;60945;48.516;-2.768;2024-01-30T06:50:14;8.20;82.90
72814;DHT22;60945;48.516;-2.768;2024-01-30T06:52:40;8.20;82.90
72814;DHT22;60945;48.516;-2.768;2024-01-30T06:55:05;8.10;83.20
72814;DHT22;60945;48.516;-2.768;2024-01-30T06:57:31;8.20;83.50
72814;DHT22;60945;48.516;-2.768;2024-01-30T06:59:57;8.20;83.30
72814;DHT22;60945;48.516;-2.768;2024-01-30T07:02:23;8.20;83.50
72814;DHT22;60945;48.516;-2.768;2024-01-30T07:04:48;8.10;83.80
72814;DHT22;60945;48.516;-2.768;2024-01-30T07:07:15;8.10;83.70
72814;DHT22;60945;48.516;-2.768;2024-01-30T07:09:41;8.00;84.30
72814;DHT22;60945;48.516;-2.768;2024-01-30T07:12:07;7.90;84.60
72814;DHT22;60945;48.516;-2.768;2024-01-30T07:14:33;7.90;84.60
72814;DHT22;60945;48.516;-2.768;2024-01-30T07:16:58;8.00;84.60
72814;DHT22;60945;48.516;-2.768;2024-01-30T07:19:24;8.00;84.30
72814;DHT22;60945;48.516;-2.768;2024-01-30T07:21:50;8.00;83.80
72814;DHT22;60945;48.516;-2.768;2024-01-30T07:24:15;8.00;84.10
72814;DHT22;60945;48.516;-2.768;2024-01-30T07:26:41;7.90;84.30
72814;DHT22;60945;48.516;-2.768;2024-01-30T07:29:06;7.90;83.90
72814;DHT22;60945;48.516;-2.768;2024-01-30T07:31:32;7.90;84.40
72814;DHT22;60945;48.516;-2.768;2024-01-30T07:33:58;7.90;84.30
72814;DHT22;60945;48.516;-2.768;2024-01-30T07:36:23;7.90;84.70
72814;DHT22;60945;48.516;-2.768;2024-01-30T07:38:49;8.00;84.60
72814;DHT22;60945;48.516;-2.768;2024-01-30T07:41:14;8.10;84.20
72814;DHT22;60945;48.516;-2.768;2024-01-30T07:43:40;8.10;83.70
72814;DHT22;60945;48.516;-2.768;2024-01-30T07:46:06;8.10;83.90
72814;DHT22;60945;48.516;-2.768;2024-01-30T07:48:35;8.10;83.80
72814;DHT22;60945;48.516;-2.768;2024-01-30T07:51:01;8.10;83.80
72814;DHT22;60945;48.516;-2.768;2024-01-30T07:53:28;8.20;83.90
72814;DHT22;60945;48.516;-2.768;2024-01-30T07:55:54;8.40;82.90
72814;DHT22;60945;48.516;-2.768;2024-01-30T07:58:19;8.40;82.70
72814;DHT22;60945;48.516;-2.768;2024-01-30T08:00:45;8.60;82.60
72814;DHT22;60945;48.516;-2.768;2024-01-30T08:03:11;8.80;81.10
72814;DHT22;60945;48.516;-2.768;2024-01-30T08:05:36;8.70;81.40
72814;DHT22;60945;48.516;-2.768;2024-01-30T08:08:03;8.90;80.80
72814;DHT22;60945;48.516;-2.768;2024-01-30T08:10:29;9.00;80.50
72814;DHT22;60945;48.516;-2.768;2024-01-30T08:12:54;9.10;80.50
72814;DHT22;60945;48.516;-2.768;2024-01-30T08:15:20;9.20;80.20
72814;DHT22;60945;48.516;-2.768;2024-01-30T08:17:45;9.20;80.20
72814;DHT22;60945;48.516;-2.768;2024-01-30T08:20:11;9.20;80.00
72814;DHT22;60945;48.516;-2.768;2024-01-30T08:22:40;9.30;79.60
72814;DHT22;60945;48.516;-2.768;2024-01-30T08:25:06;9.20;79.70
72814;DHT22;60945;48.516;-2.768;2024-01-30T08:27:32;9.30;79.80
72814;DHT22;60945;48.516;-2.768;2024-01-30T08:29:58;9.20;80.10
72814;DHT22;60945;48.516;-2.768;2024-01-30T08:32:23;9.20;80.60
72814;DHT22;60945;48.516;-2.768;2024-01-30T08:34:49;9.20;80.70
72814;DHT22;60945;48.516;-2.768;2024-01-30T08:37:15;9.40;80.10
72814;DHT22;60945;48.516;-2.768;2024-01-30T08:39:43;9.30;80.90
72814;DHT22;60945;48.516;-2.768;2024-01-30T08:42:08;9.40;80.60
72814;DHT22;60945;48.516;-2.768;2024-01-30T08:44:34;9.40;80.40
72814;DHT22;60945;48.516;-2.768;2024-01-30T08:46:59;9.40;80.80
72814;DHT22;60945;48.516;-2.768;2024-01-30T08:49:25;9.50;80.60
72814;DHT22;60945;48.516;-2.768;2024-01-30T08:51:51;9.40;81.20
72814;DHT22;60945;48.516;-2.768;2024-01-30T08:54:16;9.20;81.50
72814;DHT22;60945;48.516;-2.768;2024-01-30T08:56:42;9.30;82.00
72814;DHT22;60945;48.516;-2.768;2024-01-30T08:59:08;9.50;81.00
72814;DHT22;60945;48.516;-2.768;2024-01-30T09:01:34;9.80;79.80
72814;DHT22;60945;48.516;-2.768;2024-01-30T09:04:00;9.80;79.60
72814;DHT22;60945;48.516;-2.768;2024-01-30T09:06:25;9.90;79.40
72814;DHT22;60945;48.516;-2.768;2024-01-30T09:08:53;9.80;79.30
72814;DHT22;60945;48.516;-2.768;2024-01-30T09:11:19;9.70;79.50
72814;DHT22;60945;48.516;-2.768;2024-01-30T09:13:45;9.80;79.50
72814;DHT22;60945;48.516;-2.768;2024-01-30T09:16:10;9.90;78.80
72814;DHT22;60945;48.516;-2.768;2024-01-30T09:18:36;10.20;77.80
72814;DHT22;60945;48.516;-2.768;2024-01-30T09:21:02;10.60;76.20
72814;DHT22;60945;48.516;-2.768;2024-01-30T09:23:28;11.00;75.20
72814;DHT22;60945;48.516;-2.768;2024-01-30T09:25:54;11.10;73.80
72814;DHT22;60945;48.516;-2.768;2024-01-30T09:28:19;12.00;72.80
72814;DHT22;60945;48.516;-2.768;2024-01-30T09:30:45;11.80;71.20
72814;DHT22;60945;48.516;-2.768;2024-01-30T09:33:11;11.60;71.80
72814;DHT22;60945;48.516;-2.768;2024-01-30T09:35:36;11.90;70.80
72814;DHT22;60945;48.516;-2.768;2024-01-30T09:38:03;12.20;69.30
72814;DHT22;60945;48.516;-2.768;2024-01-30T09:40:28;11.90;70.30
72814;DHT22;60945;48.516;-2.768;2024-01-30T09:42:55;11.60;70.50
72814;DHT22;60945;48.516;-2.768;2024-01-30T09:45:24;11.30;72.00
72814;DHT22;60945;48.516;-2.768;2024-01-30T09:47:50;11.40;72.60
72814;DHT22;60945;48.516;-2.768;2024-01-30T09:50:17;11.20;72.30
72814;DHT22;60945;48.516;-2.768;2024-01-30T09:52:47;11.50;71.70
72814;DHT22;60945;48.516;-2.768;2024-01-30T09:55:13;12.00;70.80
72814;DHT22;60945;48.516;-2.768;2024-01-30T09:57:39;11.40;71.40
72814;DHT22;60945;48.516;-2.768;2024-01-30T10:00:06;11.60;71.10
72814;DHT22;60945;48.516;-2.768;2024-01-30T10:02:34;11.50;71.20
72814;DHT22;60945;48.516;-2.768;2024-01-30T10:05:00;11.70;70.80
72814;DHT22;60945;48.516;-2.768;2024-01-30T10:07:26;11.90;70.30
72814;DHT22;60945;48.516;-2.768;2024-01-30T10:09:53;12.20;69.90
72814;DHT22;60945;48.516;-2.768;2024-01-30T10:12:20;12.20;68.60
72814;DHT22;60945;48.516;-2.768;2024-01-30T10:14:46;12.40;68.00
72814;DHT22;60945;48.516;-2.768;2024-01-30T10:17:12;12.30;68.20
72814;DHT22;60945;48.516;-2.768;2024-01-30T10:19:39;12.20;68.70
72814;DHT22;60945;48.516;-2.768;2024-01-30T10:22:06;12.00;68.20
72814;DHT22;60945;48.516;-2.768;2024-01-30T10:24:33;12.00;68.70
72814;DHT22;60945;48.516;-2.768;2024-01-30T10:26:59;12.20;67.50
72814;DHT22;60945;48.516;-2.768;2024-01-30T10:29:25;12.00;68.90
72814;DHT22;60945;48.516;-2.768;2024-01-30T10:32:01;12.30;68.30
72814;DHT22;60945;48.516;-2.768;2024-01-30T10:34:27;12.60;66.90
72814;DHT22;60945;48.516;-2.768;2024-01-30T10:37:19;12.80;66.50
72814;DHT22;60945;48.516;-2.768;2024-01-30T10:39:47;12.90;65.10
72814;DHT22;60945;48.516;-2.768;2024-01-30T10:42:17;13.20;64.50
72814;DHT22;60945;48.516;-2.768;2024-01-30T10:47:30;13.70;63.30
72814;DHT22;60945;48.516;-2.768;2024-01-30T10:49:57;14.00;62.00
72814;DHT22;60945;48.516;-2.768;2024-01-30T10:52:25;14.00;61.20
72814;DHT22;60945;48.516;-2.768;2024-01-30T10:54:51;14.20;60.80
72814;DHT22;60945;48.516;-2.768;2024-01-30T10:57:18;14.50;59.40
72814;DHT22;60945;48.516;-2.768;2024-01-30T10:59:44;14.10;59.40
72814;DHT22;60945;48.516;-2.768;2024-01-30T11:02:11;13.60;58.20
72814;DHT22;60945;48.516;-2.768;2024-01-30T11:04:37;13.30;60.60
72814;DHT22;60945;48.516;-2.768;2024-01-30T11:07:14;13.60;59.30
72814;DHT22;60945;48.516;-2.768;2024-01-30T11:09:48;13.60;59.30
72814;DHT22;60945;48.516;-2.768;2024-01-30T11:12:13;13.60;59.40
72814;DHT22;60945;48.516;-2.768;2024-01-30T11:14:39;13.90;57.80
72814;DHT22;60945;48.516;-2.768;2024-01-30T11:17:09;13.80;58.20
72814;DHT22;60945;48.516;-2.768;2024-01-30T11:19:38;13.90;58.10
72814;DHT22;60945;48.516;-2.768;2024-01-30T11:22:06;13.30;59.70
72814;DHT22;60945;48.516;-2.768;2024-01-30T11:24:40;13.30;61.60
72814;DHT22;60945;48.516;-2.768;2024-01-30T11:27:09;13.30;61.30
72814;DHT22;60945;48.516;-2.768;2024-01-30T11:29:38;13.40;59.30
72814;DHT22;60945;48.516;-2.768;2024-01-30T11:32:05;13.00;54.30
72814;DHT22;60945;48.516;-2.768;2024-01-30T11:34:32;12.60;55.70
72814;DHT22;60945;48.516;-2.768;2024-01-30T11:37:06;12.80;55.80
72814;DHT22;60945;48.516;-2.768;2024-01-30T11:39:36;13.00;56.20
72814;DHT22;60945;48.516;-2.768;2024-01-30T11:42:03;12.90;56.80
72814;DHT22;60945;48.516;-2.768;2024-01-30T11:44:30;12.70;58.50
72814;DHT22;60945;48.516;-2.768;2024-01-30T11:46:59;12.80;58.10
72814;DHT22;60945;48.516;-2.768;2024-01-30T11:49:24;12.60;57.50
72814;DHT22;60945;48.516;-2.768;2024-01-30T11:51:50;12.60;57.90
72814;DHT22;60945;48.516;-2.768;2024-01-30T11:54:16;12.90;56.70
72814;DHT22;60945;48.516;-2.768;2024-01-30T11:56:42;13.10;56.10
72814;DHT22;60945;48.516;-2.768;2024-01-30T11:59:08;12.80;56.10
72814;DHT22;60945;48.516;-2.768;2024-01-30T12:01:34;12.80;57.40
72814;DHT22;60945;48.516;-2.768;2024-01-30T12:04:00;12.70;56.60
72814;DHT22;60945;48.516;-2.768;2024-01-30T12:06:26;12.60;56.20
72814;DHT22;60945;48.516;-2.768;2024-01-30T12:09:00;12.40;54.50
72814;DHT22;60945;48.516;-2.768;2024-01-30T12:11:26;12.30;55.50
72814;DHT22;60945;48.516;-2.768;2024-01-30T12:13:53;12.70;55.60
72814;DHT22;60945;48.516;-2.768;2024-01-30T12:16:20;12.90;54.50
72814;DHT22;60945;48.516;-2.768;2024-01-30T12:18:46;12.40;55.50
72814;DHT22;60945;48.516;-2.768;2024-01-30T12:21:11;12.60;56.20
72814;DHT22;60945;48.516;-2.768;2024-01-30T12:23:37;12.60;54.20
72814;DHT22;60945;48.516;-2.768;2024-01-30T12:26:03;12.60;54.60
72814;DHT22;60945;48.516;-2.768;2024-01-30T12:28:31;12.60;54.70
72814;DHT22;60945;48.516;-2.768;2024-01-30T12:31:03;12.80;52.70
72814;DHT22;60945;48.516;-2.768;2024-01-30T12:33:30;13.00;52.90
72814;DHT22;60945;48.516;-2.768;2024-01-30T12:36:01;13.20;53.40
72814;DHT22;60945;48.516;-2.768;2024-01-30T12:38:28;13.20;52.60
72814;DHT22;60945;48.516;-2.768;2024-01-30T12:40:57;13.30;52.90
72814;DHT22;60945;48.516;-2.768;2024-01-30T12:43:26;13.20;52.00
72814;DHT22;60945;48.516;-2.768;2024-01-30T12:45:54;13.30;52.10
72814;DHT22;60945;48.516;-2.768;2024-01-30T12:48:20;13.30;51.80
72814;DHT22;60945;48.516;-2.768;2024-01-30T12:50:46;13.00;51.70
72814;DHT22;60945;48.516;-2.768;2024-01-30T12:53:11;13.10;52.00
72814;DHT22;60945;48.516;-2.768;2024-01-30T12:55:38;12.80;52.00
72814;DHT22;60945;48.516;-2.768;2024-01-30T12:58:04;12.80;52.50
72814;DHT22;60945;48.516;-2.768;2024-01-30T13:00:29;12.80;52.60
72814;DHT22;60945;48.516;-2.768;2024-01-30T13:02:55;12.90;51.60
72814;DHT22;60945;48.516;-2.768;2024-01-30T13:05:21;13.10;50.40
72814;DHT22;60945;48.516;-2.768;2024-01-30T13:07:47;13.20;51.40
72814;DHT22;60945;48.516;-2.768;2024-01-30T13:10:12;13.10;51.80
72814;DHT22;60945;48.516;-2.768;2024-01-30T13:12:38;13.10;50.70
72814;DHT22;60945;48.516;-2.768;2024-01-30T13:15:04;13.30;51.10
72814;DHT22;60945;48.516;-2.768;2024-01-30T13:17:31;13.40;51.70
72814;DHT22;60945;48.516;-2.768;2024-01-30T13:19:57;13.60;51.40
72814;DHT22;60945;48.516;-2.768;2024-01-30T13:22:23;13.50;50.50
72814;DHT22;60945;48.516;-2.768;2024-01-30T13:24:49;13.50;51.20
72814;DHT22;60945;48.516;-2.768;2024-01-30T13:27:15;13.30;50.80
72814;DHT22;60945;48.516;-2.768;2024-01-30T13:29:40;13.40;51.80
72814;DHT22;60945;48.516;-2.768;2024-01-30T13:32:06;12.90;52.10
72814;DHT22;60945;48.516;-2.768;2024-01-30T13:34:32;12.70;51.90
72814;DHT22;60945;48.516;-2.768;2024-01-30T13:36:59;12.80;52.20
72814;DHT22;60945;48.516;-2.768;2024-01-30T13:39:25;12.90;52.20
72814;DHT22;60945;48.516;-2.768;2024-01-30T13:41:50;12.80;53.50
72814;DHT22;60945;48.516;-2.768;2024-01-30T13:44:16;12.60;51.70
72814;DHT22;60945;48.516;-2.768;2024-01-30T13:46:43;12.60;53.40
72814;DHT22;60945;48.516;-2.768;2024-01-30T13:49:08;12.70;53.50
72814;DHT22;60945;48.516;-2.768;2024-01-30T13:51:34;12.70;52.90
72814;DHT22;60945;48.516;-2.768;2024-01-30T13:54:00;13.00;52.60
72814;DHT22;60945;48.516;-2.768;2024-01-30T13:56:25;12.70;52.10
72814;DHT22;60945;48.516;-2.768;2024-01-30T13:58:52;12.80;52.70
72814;DHT22;60945;48.516;-2.768;2024-01-30T14:01:18;13.00;51.60
72814;DHT22;60945;48.516;-2.768;2024-01-30T14:03:43;13.00;52.60
72814;DHT22;60945;48.516;-2.768;2024-01-30T14:06:09;12.90;52.40
72814;DHT22;60945;48.516;-2.768;2024-01-30T14:08:35;12.80;53.20
72814;DHT22;60945;48.516;-2.768;2024-01-30T14:11:01;12.90;53.70
72814;DHT22;60945;48.516;-2.768;2024-01-30T14:13:26;13.00;53.30
72814;DHT22;60945;48.516;-2.768;2024-01-30T14:15:52;13.10;53.20
72814;DHT22;60945;48.516;-2.768;2024-01-30T14:18:18;13.00;52.90
72814;DHT22;60945;48.516;-2.768;2024-01-30T14:20:44;13.00;52.90
72814;DHT22;60945;48.516;-2.768;2024-01-30T14:23:09;12.90;53.10
72814;DHT22;60945;48.516;-2.768;2024-01-30T14:25:35;12.60;54.50
72814;DHT22;60945;48.516;-2.768;2024-01-30T14:28:01;12.10;57.60
72814;DHT22;60945;48.516;-2.768;2024-01-30T14:30:26;11.90;59.00
72814;DHT22;60945;48.516;-2.768;2024-01-30T14:32:52;11.80;59.30
72814;DHT22;60945;48.516;-2.768;2024-01-30T14:35:17;11.90;59.50
72814;DHT22;60945;48.516;-2.768;2024-01-30T14:37:45;11.90;59.10
72814;DHT22;60945;48.516;-2.768;2024-01-30T14:40:10;11.50;59.90
72814;DHT22;60945;48.516;-2.768;2024-01-30T14:42:36;11.40;61.00
72814;DHT22;60945;48.516;-2.768;2024-01-30T14:45:03;11.20;61.80
72814;DHT22;60945;48.516;-2.768;2024-01-30T14:47:29;11.30;61.80
72814;DHT22;60945;48.516;-2.768;2024-01-30T14:49:56;11.50;61.60
72814;DHT22;60945;48.516;-2.768;2024-01-30T14:52:21;11.50;60.90
72814;DHT22;60945;48.516;-2.768;2024-01-30T14:54:47;11.80;60.90
72814;DHT22;60945;48.516;-2.768;2024-01-30T14:57:12;11.80;60.80
72814;DHT22;60945;48.516;-2.768;2024-01-30T14:59:39;11.70;59.80
72814;DHT22;60945;48.516;-2.768;2024-01-30T15:02:06;11.40;61.00
72814;DHT22;60945;48.516;-2.768;2024-01-30T15:04:31;11.70;60.30
72814;DHT22;60945;48.516;-2.768;2024-01-30T15:06:57;11.70;59.90
72814;DHT22;60945;48.516;-2.768;2024-01-30T15:09:23;11.30;60.90
72814;DHT22;60945;48.516;-2.768;2024-01-30T15:11:49;11.30;61.00
72814;DHT22;60945;48.516;-2.768;2024-01-30T15:14:15;11.40;60.70
72814;DHT22;60945;48.516;-2.768;2024-01-30T15:16:41;11.50;60.70
72814;DHT22;60945;48.516;-2.768;2024-01-30T15:19:08;11.70;60.30